createdAt,value
2018-11-06T00:00:16.281Z,91.40
2018-11-06T00:02:56.914Z,92.30
2018-11-06T00:05:32.425Z,91.90
2018-11-06T00:08:07.325Z,92.60
2018-11-06T00:10:42.199Z,92.60
2018-11-06T00:13:20.686Z,92.20
2018-11-06T00:15:55.817Z,92.40
2018-11-06T00:18:30.896Z,91.80
2018-11-06T00:21:06.096Z,92.00
2018-11-06T00:23:41.137Z,91.60
2018-11-06T00:26:16.205Z,92.90
2018-11-06T00:28:51.361Z,92.60
2018-11-06T00:31:26.129Z,92.60
2018-11-06T00:34:01.593Z,92.90
2018-11-06T00:36:36.905Z,93.60
2018-11-06T00:39:12.353Z,93.40
2018-11-06T00:41:48.308Z,93.50
2018-11-06T00:44:23.447Z,94.10
2018-11-06T00:46:59.440Z,95.50
2018-11-06T00:49:34.232Z,96.10
2018-11-06T00:52:10.097Z,97.10
2018-11-06T00:54:44.968Z,95.90
2018-11-06T00:57:19.906Z,95.30
2018-11-06T00:59:54.786Z,95.50
2018-11-06T01:02:29.515Z,95.40
2018-11-06T01:05:05.841Z,95.10
2018-11-06T01:07:41.137Z,94.50
2018-11-06T01:10:16.108Z,94.30
2018-11-06T01:12:51.209Z,94.50
2018-11-06T01:15:26.657Z,94.30
2018-11-06T01:18:01.622Z,93.50
2018-11-06T01:20:37.194Z,93.20
2018-11-06T01:23:12.713Z,93.90
2018-11-06T01:25:48.202Z,92.40
2018-11-06T01:28:23.674Z,92.20
2018-11-06T01:30:58.804Z,92.80
2018-11-06T01:33:34.794Z,92.80
2018-11-06T01:36:09.693Z,92.20
2018-11-06T01:38:45.730Z,91.70
2018-11-06T01:41:20.566Z,92.40
2018-11-06T01:43:55.653Z,92.60
2018-11-06T01:46:30.730Z,91.90
2018-11-06T01:49:06.009Z,92.00
2018-11-06T01:51:41.405Z,91.70
2018-11-06T01:54:16.592Z,91.40
2018-11-06T01:56:51.948Z,91.50
2018-11-06T01:59:27.397Z,92.00
2018-11-06T02:02:02.276Z,92.40
2018-11-06T02:04:37.416Z,91.20
2018-11-06T02:07:12.854Z,90.40
2018-11-06T02:09:48.010Z,90.70
2018-11-06T02:12:22.934Z,90.90
2018-11-06T02:14:59.204Z,90.90
2018-11-06T02:17:34.364Z,91.90
2018-11-06T02:20:10.818Z,90.30
2018-11-06T02:22:46.528Z,90.50
2018-11-06T02:25:21.194Z,91.00
2018-11-06T02:27:56.066Z,91.00
2018-11-06T02:30:31.728Z,91.30
2018-11-06T02:33:06.705Z,91.20
2018-11-06T02:35:41.814Z,91.50
2018-11-06T02:38:16.654Z,91.80
2018-11-06T02:40:51.360Z,91.10
2018-11-06T02:43:26.502Z,91.20
2018-11-06T02:46:02.724Z,91.30
2018-11-06T02:48:37.994Z,91.30
2018-11-06T02:51:13.682Z,92.20
2018-11-06T02:53:49.536Z,91.70
2018-11-06T02:56:24.982Z,91.90
2018-11-06T02:58:59.918Z,91.70
2018-11-06T03:01:36.248Z,91.90
2018-11-06T03:04:10.920Z,91.90
2018-11-06T03:06:46.102Z,92.10
2018-11-06T03:09:20.932Z,92.00
2018-11-06T03:11:56.569Z,92.10
2018-11-06T03:14:31.706Z,92.40
2018-11-06T03:17:06.600Z,91.50
2018-11-06T03:19:41.569Z,91.40
2018-11-06T03:22:16.620Z,91.70
2018-11-06T03:24:51.538Z,92.10
2018-11-06T03:27:26.518Z,91.80
2018-11-06T03:30:01.830Z,92.20
2018-11-06T03:32:37.465Z,92.00
2018-11-06T03:35:13.021Z,91.70
2018-11-06T03:37:48.042Z,92.10
2018-11-06T03:40:23.082Z,91.90
2018-11-06T03:42:58.634Z,92.10
2018-11-06T03:45:33.663Z,92.00
2018-11-06T03:48:09.122Z,92.10
2018-11-06T03:50:45.211Z,91.40
2018-11-06T03:53:20.214Z,91.70
2018-11-06T03:55:55.642Z,91.50
2018-11-06T03:58:30.588Z,91.50
2018-11-06T04:01:05.725Z,91.30
2018-11-06T04:03:41.627Z,91.50
2018-11-06T04:06:16.635Z,91.40
2018-11-06T04:08:52.400Z,91.80
2018-11-06T04:11:28.030Z,92.70
2018-11-06T04:14:02.991Z,91.70
2018-11-06T04:16:38.786Z,91.50
2018-11-06T04:19:13.817Z,91.40
2018-11-06T04:21:49.704Z,91.10
2018-11-06T04:24:24.405Z,91.90
2018-11-06T04:27:00.068Z,92.30
2018-11-06T04:29:35.256Z,92.10
2018-11-06T04:32:10.882Z,92.20
2018-11-06T04:34:46.086Z,91.70
2018-11-06T04:37:21.634Z,91.30
2018-11-06T04:39:56.940Z,91.30
2018-11-06T04:42:31.817Z,92.10
2018-11-06T04:45:07.873Z,91.70
2018-11-06T04:47:43.315Z,92.00
2018-11-06T04:50:19.948Z,92.80
2018-11-06T04:52:55.116Z,92.70
2018-11-06T04:55:30.066Z,91.80
2018-11-06T04:58:04.813Z,91.70
2018-11-06T05:00:39.947Z,92.00
2018-11-06T05:03:14.997Z,92.30
2018-11-06T05:05:50.062Z,92.00
2018-11-06T05:08:25.844Z,92.00
2018-11-06T05:11:10.980Z,91.90
2018-11-06T05:13:46.112Z,92.50
2018-11-06T05:16:22.270Z,92.20
2018-11-06T05:18:57.505Z,92.20
2018-11-06T05:21:33.302Z,91.80
2018-11-06T05:24:08.309Z,91.90
2018-11-06T05:26:43.234Z,92.30
2018-11-06T05:29:17.963Z,91.60
2018-11-06T05:31:53.931Z,91.90
2018-11-06T05:34:28.839Z,92.10
2018-11-06T05:37:04.190Z,91.60
2018-11-06T05:39:50.686Z,91.30
2018-11-06T05:42:25.806Z,91.40
2018-11-06T05:45:01.392Z,91.50
2018-11-06T05:47:36.525Z,92.30
2018-11-06T05:50:11.716Z,91.80
2018-11-06T05:52:46.901Z,91.60
2018-11-06T05:55:21.881Z,91.40
2018-11-06T05:57:57.204Z,91.60
2018-11-06T06:00:31.969Z,92.00
2018-11-06T06:03:07.710Z,92.30
2018-11-06T06:05:42.755Z,92.40
2018-11-06T06:08:17.546Z,92.00
2018-11-06T06:10:53.120Z,92.10
2018-11-06T06:13:28.113Z,92.00
2018-11-06T06:16:03.149Z,91.70
2018-11-06T06:18:38.198Z,92.00
2018-11-06T06:21:13.326Z,91.60
2018-11-06T06:23:48.334Z,91.50
2018-11-06T06:26:23.114Z,91.80
2018-11-06T06:28:58.654Z,91.40
2018-11-06T06:31:34.312Z,91.60
2018-11-06T06:34:09.329Z,91.40
2018-11-06T06:36:44.405Z,91.50
2018-11-06T06:39:19.224Z,91.30
2018-11-06T06:41:54.259Z,91.60
2018-11-06T06:44:29.381Z,91.10
2018-11-06T06:47:04.594Z,91.10
2018-11-06T06:49:39.606Z,90.50
2018-11-06T06:52:14.308Z,90.10
2018-11-06T06:54:50.156Z,90.00
2018-11-06T06:57:25.080Z,89.70
2018-11-06T06:59:59.899Z,87.70
2018-11-06T07:02:34.833Z,86.50
2018-11-06T07:05:12.817Z,85.40
2018-11-06T07:07:48.057Z,85.00
2018-11-06T07:10:23.711Z,83.20
2018-11-06T07:12:59.241Z,83.40
2018-11-06T07:15:34.306Z,83.50
2018-11-06T07:18:09.173Z,84.90
2018-11-06T07:20:44.146Z,82.30
2018-11-06T07:23:18.842Z,78.70
2018-11-06T07:25:54.034Z,76.70
2018-11-06T07:28:28.798Z,75.30
2018-11-06T07:31:03.839Z,74.30
2018-11-06T07:33:39.416Z,75.60
2018-11-06T07:36:14.293Z,78.40
2018-11-06T07:38:49.326Z,82.90
2018-11-06T07:41:24.545Z,85.30
2018-11-06T07:43:59.547Z,87.90
2018-11-06T07:46:35.034Z,89.50
2018-11-06T07:49:10.457Z,89.60
2018-11-06T07:51:45.102Z,90.40
2018-11-06T07:54:19.972Z,90.20
2018-11-06T07:56:55.242Z,90.50
2018-11-06T07:59:30.446Z,90.40
2018-11-06T08:02:06.894Z,90.70
2018-11-06T08:04:41.546Z,90.60
2018-11-06T08:07:16.593Z,90.50
2018-11-06T08:09:51.624Z,90.60
2018-11-06T08:12:26.515Z,90.40
2018-11-06T08:15:01.795Z,89.80
2018-11-06T08:17:37.454Z,90.10
2018-11-06T08:20:13.806Z,90.30
2018-11-06T08:22:49.049Z,90.40
2018-11-06T08:25:24.172Z,90.20
2018-11-06T08:27:59.407Z,90.00
2018-11-06T08:30:34.362Z,90.40
2018-11-06T08:33:09.338Z,90.50
2018-11-06T08:35:44.141Z,90.60
2018-11-06T08:38:18.930Z,90.80
2018-11-06T08:40:53.965Z,90.90
2018-11-06T08:43:29.347Z,90.50
2018-11-06T08:46:04.046Z,90.10
2018-11-06T08:48:39.495Z,89.80
2018-11-06T08:51:14.794Z,89.30
2018-11-06T08:53:50.021Z,89.60
2018-11-06T08:56:25.499Z,90.40
2018-11-06T08:59:00.756Z,90.70
2018-11-06T09:01:36.201Z,90.90
2018-11-06T09:04:11.470Z,90.60
2018-11-06T09:06:46.443Z,90.50
2018-11-06T09:09:21.531Z,90.70
2018-11-06T09:11:56.601Z,91.20
2018-11-06T09:14:31.756Z,90.80
2018-11-06T09:17:07.305Z,90.50
2018-11-06T09:19:42.429Z,90.70
2018-11-06T09:22:17.898Z,91.00
2018-11-06T09:24:53.620Z,90.90
2018-11-06T09:27:28.541Z,91.40
2018-11-06T09:30:03.544Z,90.90
2018-11-06T09:32:38.750Z,90.00
2018-11-06T09:35:14.818Z,88.90
2018-11-06T09:37:49.730Z,87.10
2018-11-06T09:40:24.820Z,87.10
2018-11-06T09:43:01.024Z,88.00
2018-11-06T09:45:36.389Z,88.40
2018-11-06T09:48:12.312Z,88.10
2018-11-06T09:50:47.146Z,88.40
2018-11-06T09:53:22.279Z,87.70
2018-11-06T09:55:56.980Z,87.20
2018-11-06T09:58:32.311Z,86.00
2018-11-06T10:01:07.187Z,86.60
2018-11-06T10:03:42.244Z,88.00
2018-11-06T10:06:18.256Z,87.70
2018-11-06T10:08:54.039Z,87.90
2018-11-06T10:11:29.171Z,87.50
2018-11-06T10:14:04.841Z,87.30
2018-11-06T10:16:39.970Z,85.40
2018-11-06T10:19:14.786Z,84.40
2018-11-06T10:21:49.650Z,83.70
2018-11-06T10:24:25.425Z,79.90
2018-11-06T10:27:00.225Z,83.90
2018-11-06T10:29:35.381Z,86.20
2018-11-06T10:32:10.086Z,87.80
2018-11-06T10:34:45.546Z,89.80
2018-11-06T10:37:20.220Z,89.50
2018-11-06T10:39:54.936Z,90.20
2018-11-06T10:42:29.776Z,90.20
2018-11-06T10:45:05.772Z,90.20
2018-11-06T10:47:40.606Z,90.20
2018-11-06T10:50:16.054Z,89.20
2018-11-06T10:52:51.102Z,89.40
2018-11-06T10:55:25.974Z,89.40
2018-11-06T10:58:01.496Z,89.20
2018-11-06T11:00:42.004Z,89.10
2018-11-06T11:03:22.963Z,89.10
2018-11-06T11:05:57.908Z,87.60
2018-11-06T11:08:32.641Z,88.30
2018-11-06T11:11:07.678Z,89.10
2018-11-06T11:13:42.341Z,89.90
2018-11-06T11:16:17.295Z,90.00
2018-11-06T11:18:52.018Z,90.40
2018-11-06T11:21:26.889Z,89.70
2018-11-06T11:24:01.863Z,90.40
2018-11-06T11:26:37.092Z,91.00
2018-11-06T11:29:12.031Z,91.00
2018-11-06T11:31:47.038Z,90.90
2018-11-06T11:34:21.600Z,90.90
2018-11-06T11:36:56.327Z,90.30
2018-11-06T11:39:31.430Z,90.10
2018-11-06T11:42:06.755Z,89.70
2018-11-06T11:44:41.487Z,89.50
2018-11-06T11:47:16.526Z,88.90
2018-11-06T11:49:51.348Z,88.10
2018-11-06T11:52:26.611Z,88.10
2018-11-06T11:55:01.979Z,87.70
2018-11-06T11:57:37.206Z,87.00
2018-11-06T12:00:14.036Z,88.00
2018-11-06T12:02:49.470Z,88.20
2018-11-06T12:05:24.141Z,87.70
2018-11-06T12:07:59.589Z,87.60
2018-11-06T12:10:35.349Z,88.40
2018-11-06T12:13:10.218Z,88.90
2018-11-06T12:15:45.008Z,88.00
2018-11-06T12:18:20.306Z,88.00
2018-11-06T12:20:55.970Z,88.70
2018-11-06T12:23:30.727Z,87.70
2018-11-06T12:26:06.050Z,85.10
2018-11-06T12:28:40.830Z,85.40
2018-11-06T12:31:15.886Z,85.60
2018-11-06T12:33:50.790Z,85.80
2018-11-06T12:36:25.883Z,85.30
2018-11-06T12:39:00.907Z,86.10
2018-11-06T12:41:36.346Z,85.80
2018-11-06T12:44:11.434Z,86.90
2018-11-06T12:46:46.307Z,87.40
2018-11-06T12:49:22.007Z,88.30
2018-11-06T12:51:56.954Z,87.90
2018-11-06T12:54:31.758Z,88.20
2018-11-06T12:57:06.508Z,87.70
2018-11-06T12:59:41.743Z,88.20
2018-11-06T13:02:16.690Z,89.60
2018-11-06T13:04:51.414Z,88.90
2018-11-06T13:07:26.432Z,88.70
2018-11-06T13:10:01.431Z,88.70
2018-11-06T13:12:36.607Z,89.00
2018-11-06T13:15:12.004Z,89.10
2018-11-06T13:17:46.837Z,89.00
2018-11-06T13:20:22.655Z,90.00
2018-11-06T13:22:57.349Z,90.30
2018-11-06T13:25:33.028Z,90.00
2018-11-06T13:28:08.178Z,90.10
2018-11-06T13:30:43.209Z,90.20
2018-11-06T13:33:18.336Z,90.10
2018-11-06T13:35:53.976Z,90.20
2018-11-06T13:38:29.098Z,90.10
2018-11-06T13:41:04.649Z,90.20
2018-11-06T13:43:39.706Z,90.20
2018-11-06T13:46:14.462Z,90.40
2018-11-06T13:48:49.442Z,90.40
2018-11-06T13:51:24.191Z,90.60
2018-11-06T13:53:59.032Z,90.50
2018-11-06T13:56:33.755Z,90.20
2018-11-06T13:59:08.609Z,90.20
2018-11-06T14:01:43.852Z,90.40
2018-11-06T14:04:18.704Z,90.00
2018-11-06T14:06:53.717Z,90.20
2018-11-06T14:09:28.561Z,90.00
2018-11-06T14:12:03.679Z,89.70
2018-11-06T14:14:38.405Z,90.00
2018-11-06T14:17:13.082Z,90.30
2018-11-06T14:19:47.922Z,90.30
2018-11-06T14:22:22.632Z,90.40
2018-11-06T14:24:57.432Z,90.20
2018-11-06T14:27:32.187Z,90.00
2018-11-06T14:30:10.859Z,90.20
2018-11-06T14:32:46.394Z,90.20
2018-11-06T14:35:21.157Z,90.10
2018-11-06T14:37:55.976Z,90.00
2018-11-06T14:40:30.821Z,90.30
2018-11-06T14:43:06.260Z,90.30
2018-11-06T14:45:41.487Z,90.50
2018-11-06T14:48:16.851Z,90.70
2018-11-06T14:50:51.766Z,90.50
2018-11-06T14:53:26.586Z,90.90
2018-11-06T14:56:01.496Z,90.80
2018-11-06T14:58:36.457Z,91.10
2018-11-06T15:01:11.795Z,91.20
2018-11-06T15:03:47.053Z,91.40
2018-11-06T15:06:22.574Z,91.50
2018-11-06T15:08:58.035Z,91.60
2018-11-06T15:11:32.837Z,91.80
2018-11-06T15:14:07.870Z,92.00
2018-11-06T15:16:43.540Z,92.20
2018-11-06T15:19:18.472Z,92.30
2018-11-06T15:21:53.390Z,92.40
2018-11-06T15:24:28.130Z,92.60
2018-11-06T15:27:03.090Z,92.80
2018-11-06T15:29:38.448Z,93.00
2018-11-06T15:32:13.109Z,93.10
2018-11-06T15:34:48.440Z,93.20
2018-11-06T15:37:23.741Z,93.40
2018-11-06T15:39:58.690Z,93.70
2018-11-06T15:42:33.497Z,94.30
2018-11-06T15:45:09.817Z,94.60
2018-11-06T15:47:45.198Z,94.40
2018-11-06T15:50:21.191Z,94.50
2018-11-06T15:52:57.351Z,94.70
2018-11-06T15:55:32.154Z,94.30
2018-11-06T15:58:07.263Z,93.90
2018-11-06T16:00:42.050Z,94.30
2018-11-06T16:03:17.603Z,93.90
2018-11-06T16:05:52.822Z,93.70
2018-11-06T16:08:27.731Z,93.80
2018-11-06T16:11:03.058Z,94.00
2018-11-06T16:13:37.785Z,94.10
2018-11-06T16:16:13.956Z,93.90
2018-11-06T16:18:48.630Z,94.00
2018-11-06T16:21:23.728Z,94.00
2018-11-06T16:23:59.271Z,94.00
2018-11-06T16:26:34.490Z,93.70
2018-11-06T16:29:09.196Z,93.80
2018-11-06T16:31:44.324Z,93.90
2018-11-06T16:34:19.060Z,93.60
2018-11-06T16:36:54.118Z,93.50
2018-11-06T16:39:29.019Z,93.50
2018-11-06T16:42:04.161Z,93.90
2018-11-06T16:44:39.088Z,93.60
2018-11-06T16:47:14.171Z,93.50
2018-11-06T16:49:49.248Z,93.40
2018-11-06T16:52:24.937Z,93.20
2018-11-06T16:54:59.678Z,93.10
2018-11-06T16:57:42.507Z,92.80
2018-11-06T17:00:19.895Z,92.70
2018-11-06T17:02:54.809Z,92.50
2018-11-06T17:05:29.817Z,92.20
2018-11-06T17:08:05.498Z,91.90
2018-11-06T17:10:40.926Z,91.80
2018-11-06T17:13:16.752Z,91.80
2018-11-06T17:15:51.491Z,91.70
2018-11-06T17:18:26.530Z,91.60
2018-11-06T17:21:01.599Z,91.50
2018-11-06T17:23:37.253Z,91.50
2018-11-06T17:26:12.182Z,91.50
2018-11-06T17:28:46.968Z,91.80
2018-11-06T17:31:21.689Z,91.50
2018-11-06T17:33:57.393Z,91.50
2018-11-06T17:36:32.405Z,91.60
2018-11-06T17:39:10.755Z,91.60
2018-11-06T17:41:46.170Z,91.70
2018-11-06T17:44:21.010Z,91.60
2018-11-06T17:46:56.053Z,91.60
2018-11-06T17:49:31.167Z,91.60
2018-11-06T17:52:07.018Z,91.70
2018-11-06T17:54:42.265Z,91.70
2018-11-06T17:57:17.306Z,91.80
2018-11-06T17:59:52.104Z,92.10
2018-11-06T18:02:27.755Z,92.30
2018-11-06T18:05:02.938Z,92.20
2018-11-06T18:07:38.314Z,92.00
2018-11-06T18:10:14.633Z,92.00
2018-11-06T18:12:49.450Z,92.10
2018-11-06T18:15:24.548Z,92.30
2018-11-06T18:17:59.400Z,92.30
2018-11-06T18:20:34.399Z,92.30
2018-11-06T18:23:09.337Z,92.40
2018-11-06T18:25:44.382Z,92.40
2018-11-06T18:28:19.462Z,92.50
2018-11-06T18:30:54.381Z,92.50
2018-11-06T18:33:29.413Z,92.60
2018-11-06T18:36:04.712Z,92.70
2018-11-06T18:38:39.517Z,92.80
2018-11-06T18:41:14.551Z,93.10
2018-11-06T18:43:49.525Z,92.90
2018-11-06T18:46:24.666Z,92.90
2018-11-06T18:48:59.455Z,92.90
2018-11-06T18:51:35.065Z,92.90
2018-11-06T18:54:10.673Z,93.10
2018-11-06T18:56:46.432Z,93.20
2018-11-06T18:59:21.464Z,93.20
2018-11-06T19:01:56.100Z,93.30
2018-11-06T19:04:31.010Z,93.30
2018-11-06T19:07:06.903Z,93.50
2018-11-06T19:09:41.872Z,93.70
2018-11-06T19:12:17.464Z,93.80
2018-11-06T19:14:52.275Z,93.80
2018-11-06T19:17:27.297Z,93.80
2018-11-06T19:20:02.083Z,93.70
2018-11-06T19:22:37.067Z,93.70
2018-11-06T19:25:13.050Z,93.70
2018-11-06T19:27:47.869Z,93.70
2018-11-06T19:30:22.790Z,93.90
2018-11-06T19:32:57.987Z,93.80
2018-11-06T19:35:32.887Z,93.80
2018-11-06T19:38:07.605Z,94.10
2018-11-06T19:40:42.449Z,93.80
2018-11-06T19:43:17.632Z,93.80
2018-11-06T19:45:52.501Z,93.80
2018-11-06T19:48:27.509Z,93.90
2018-11-06T19:51:03.010Z,94.10
2018-11-06T19:53:38.572Z,94.20
2018-11-06T19:56:13.571Z,94.10
2018-11-06T19:58:48.280Z,94.00
2018-11-06T20:01:23.274Z,94.10
2018-11-06T20:03:58.136Z,94.00
2018-11-06T20:06:33.067Z,93.90
2018-11-06T20:09:09.615Z,93.90
2018-11-06T20:11:44.543Z,93.90
2018-11-06T20:14:19.444Z,94.00
2018-11-06T20:16:54.345Z,94.00
2018-11-06T20:19:29.248Z,94.10
2018-11-06T20:22:04.996Z,94.30
2018-11-06T20:24:40.507Z,94.30
2018-11-06T20:27:15.298Z,94.20
2018-11-06T20:29:50.543Z,94.30
2018-11-06T20:32:25.591Z,95.20
2018-11-06T20:35:00.427Z,95.20
2018-11-06T20:37:35.559Z,95.00
2018-11-06T20:40:16.701Z,94.90
2018-11-06T20:42:52.235Z,94.80
2018-11-06T20:45:27.154Z,94.70
2018-11-06T20:48:02.023Z,94.70
2018-11-06T20:50:36.954Z,94.90
2018-11-06T20:53:11.966Z,94.80
2018-11-06T20:55:47.809Z,94.70
2018-11-06T20:58:22.731Z,94.80
2018-11-06T21:00:57.621Z,94.90
2018-11-06T21:03:32.891Z,94.80
2018-11-06T21:06:07.923Z,94.90
2018-11-06T21:08:42.738Z,95.00
2018-11-06T21:11:17.659Z,95.40
2018-11-06T21:13:53.303Z,95.50
2018-11-06T21:16:28.734Z,95.20
2018-11-06T21:19:03.536Z,95.30
2018-11-06T21:21:38.362Z,95.20
2018-11-06T21:24:13.449Z,95.00
2018-11-06T21:26:48.627Z,95.00
2018-11-06T21:29:24.269Z,94.90
2018-11-06T21:31:59.369Z,95.00
2018-11-06T21:34:34.346Z,95.00
2018-11-06T21:37:09.236Z,95.30
2018-11-06T21:39:44.049Z,95.30
2018-11-06T21:42:18.850Z,95.20
2018-11-06T21:44:54.378Z,95.20
2018-11-06T21:47:29.290Z,95.20
2018-11-06T21:50:04.902Z,95.20
2018-11-06T21:52:40.370Z,95.10
2018-11-06T21:55:16.453Z,95.10
2018-11-06T21:57:51.230Z,95.10
2018-11-06T22:00:26.056Z,95.10
2018-11-06T22:03:01.073Z,95.20
2018-11-06T22:05:35.798Z,95.30
2018-11-06T22:08:10.583Z,95.50
2018-11-06T22:10:46.089Z,95.20
2018-11-06T22:13:20.842Z,95.20
2018-11-06T22:15:55.957Z,95.00
2018-11-06T22:18:30.921Z,94.90
2018-11-06T22:21:05.990Z,94.90
2018-11-06T22:23:40.831Z,94.80
2018-11-06T22:26:16.387Z,94.80
2018-11-06T22:28:52.402Z,94.80
2018-11-06T22:31:27.327Z,94.90
2018-11-06T22:34:02.385Z,94.90
2018-11-06T22:36:37.463Z,94.80
2018-11-06T22:39:13.108Z,94.60
2018-11-06T22:41:48.048Z,94.60
2018-11-06T22:44:22.773Z,94.50
2018-11-06T22:46:58.346Z,94.50
2018-11-06T22:49:32.969Z,94.60
2018-11-06T22:52:07.308Z,94.70
2018-11-06T22:54:41.458Z,94.90
2018-11-06T22:57:15.652Z,94.80
2018-11-06T22:59:49.766Z,95.00
2018-11-06T23:02:24.217Z,95.10
2018-11-06T23:04:58.202Z,95.10
2018-11-06T23:07:37.674Z,95.00
2018-11-06T23:10:12.047Z,95.10
2018-11-06T23:12:46.180Z,95.20
2018-11-06T23:15:20.041Z,95.10
2018-11-06T23:17:54.281Z,95.00
2018-11-06T23:20:28.355Z,95.30
2018-11-06T23:23:03.360Z,95.20
2018-11-06T23:25:37.335Z,95.50
2018-11-06T23:28:11.820Z,95.50
2018-11-06T23:30:45.808Z,95.60
2018-11-06T23:33:19.860Z,95.30
2018-11-06T23:35:53.911Z,95.20
2018-11-06T23:38:27.985Z,95.10
2018-11-06T23:41:02.077Z,95.20
2018-11-06T23:43:36.088Z,95.00
2018-11-06T23:46:10.301Z,95.20
2018-11-06T23:48:44.319Z,95.30
2018-11-06T23:51:18.298Z,95.20
2018-11-06T23:53:53.239Z,94.90
2018-11-06T23:56:27.344Z,95.10
2018-11-06T23:59:01.763Z,95.80
